Time;durP1;ratioP1;P1;durP2;ratioP2;P2;SDS_P1;SDS_P2;PMS_P1;PMS_P2;Temp;Humidity;BMP_temperature;BMP_pressure;BME280_temperature;BME280_humidity;BME280_pressure;Samples;Min_cycle;Max_cycle;Signal;HPM_P1;HPM_P2
2022/09/04 00:02:18;;;;;;;14.60;3.65;;;;;;;;;;4962504;28;20070;-70
2022/09/04 00:04:57;;;;;;;11.07;3.17;;;;;;;;;;4962810;28;20311;-71
2022/09/04 00:07:28;;;;;;;16.60;3.38;;;;;;;;;;4960539;28;20051;-70
2022/09/04 00:10:01;;;;;;;21.40;4.00;;;;;;;;;;4958081;28;20065;-71
2022/09/04 00:12:39;;;;;;;14.18;3.40;;;;;;;;;;4958045;28;20512;-69
2022/09/04 00:15:30;;;;;;;9.90;3.15;;;;;;;;;;4956345;28;20610;-69
2022/09/04 00:18:03;;;;;;;13.35;3.17;;;;;;;;;;4958829;28;20059;-71
2022/09/04 00:20:56;;;;;;;14.57;3.20;;;;;;;;;;4961120;28;20412;-70
2022/09/04 00:23:48;;;;;;;13.48;3.50;;;;;;;;;;4961114;28;20491;-70
2022/09/04 00:26:17;;;;;;;14.45;3.10;;;;;;;;;;4954529;28;20065;-69
2022/09/04 00:28:49;;;;;;;11.57;3.28;;;;;;;;;;5032850;28;20056;-70
2022/09/04 00:31:18;;;;;;;12.38;3.33;;;;;;;;;;5045505;28;20064;-69
2022/09/04 00:33:58;;;;;;;13.43;3.35;;;;;;;;;;5045521;28;20064;-70
2022/09/04 00:36:27;;;;;;;11.63;3.13;;;;;;;;;;5045175;28;20506;-69
2022/09/04 00:38:59;;;;;;;10.60;3.28;;;;;;;;;;5042874;28;20548;-70
2022/09/04 00:41:46;;;;;;;14.25;3.13;;;;;;;;;;5042667;28;20049;-69
2022/09/04 00:44:36;;;;;;;11.73;3.10;;;;;;;;;;5043992;28;20084;-69
2022/09/04 00:47:34;;;;;;;12.07;3.20;;;;;;;;;;5042595;28;20410;-69
2022/09/04 00:50:06;;;;;;;13.60;3.33;;;;;;;;;;5041338;28;20056;-69
2022/09/04 00:53:17;;;;;;;10.70;3.25;;;;;;;;;;5042756;28;20116;-71
2022/09/04 00:55:46;;;;;;;12.73;3.05;;;;;;;;;;5037421;28;20041;-70
2022/09/04 00:58:33;;;;;;;11.23;2.90;;;;;;;;;;5044151;28;20114;-71
2022/09/04 01:00:59;;;;;;;10.70;3.30;;;;;;;;;;5042836;28;20052;-70
2022/09/04 01:03:33;;;;;;;16.27;3.35;;;;;;;;;;5042980;28;20037;-69
2022/09/04 01:06:39;;;;;;;11.02;3.25;;;;;;;;;;5042926;28;20131;-70
2022/09/04 01:09:11;;;;;;;9.02;3.00;;;;;;;;;;5040735;28;20041;-69
2022/09/04 01:11:52;;;;;;;14.48;3.78;;;;;;;;;;5042712;28;20067;-68
2022/09/04 01:14:47;;;;;;;10.52;3.00;;;;;;;;;;5044080;28;20080;-70
2022/09/04 01:17:41;;;;;;;13.27;3.00;;;;;;;;;;5043987;28;20521;-69
2022/09/04 01:20:19;;;;;;;13.57;3.15;;;;;;;;;;5040654;28;20057;-69
2022/09/04 01:23:15;;;;;;;11.38;3.05;;;;;;;;;;5044737;28;20080;-71
2022/09/04 01:25:59;;;;;;;12.73;3.80;;;;;;;;;;5041010;28;20059;-70
2022/09/04 01:28:55;;;;;;;16.20;4.70;;;;;;;;;;5040805;28;20106;-68
2022/09/04 01:31:45;;;;;;;18.45;3.65;;;;;;;;;;5044226;28;20124;-70
2022/09/04 01:35:02;;;;;;;13.98;3.40;;;;;;;;;;5041802;28;20057;-69
2022/09/04 01:37:46;;;;;;;16.45;3.95;;;;;;;;;;5032769;28;20505;-71
2022/09/04 01:40:18;;;;;;;14.18;3.83;;;;;;;;;;5043564;28;20049;-68
2022/09/04 01:42:49;;;;;;;14.75;3.55;;;;;;;;;;5044242;28;20445;-69
2022/09/04 01:45:27;;;;;;;14.05;3.15;;;;;;;;;;5042506;28;20060;-69
2022/09/04 01:47:59;;;;;;;12.57;3.28;;;;;;;;;;5041988;28;20064;-68
2022/09/04 01:50:27;;;;;;;12.25;3.25;;;;;;;;;;5038068;28;20049;-70
2022/09/04 01:53:17;;;;;;;13.10;3.53;;;;;;;;;;5045745;28;20044;-69
2022/09/04 01:55:54;;;;;;;10.77;3.17;;;;;;;;;;5042208;28;20480;-72
2022/09/04 01:58:44;;;;;;;8.98;3.47;;;;;;;;;;5044385;28;20534;-70
2022/09/04 02:01:10;;;;;;;15.40;3.40;;;;;;;;;;5042439;28;20057;-69
2022/09/04 02:03:55;;;;;;;12.30;2.95;;;;;;;;;;5043414;28;20061;-71
2022/09/04 02:07:06;;;;;;;13.18;3.40;;;;;;;;;;5041798;28;20072;-69
2022/09/04 02:09:54;;;;;;;8.82;3.45;;;;;;;;;;5041082;28;20278;-69
2022/09/04 02:12:30;;;;;;;14.00;3.25;;;;;;;;;;5042706;28;20136;-70
2022/09/04 02:15:11;;;;;;;15.27;3.55;;;;;;;;;;5040148;28;20045;-69
2022/09/04 02:17:50;;;;;;;12.98;3.38;;;;;;;;;;5044395;28;20061;-70
2022/09/04 02:20:28;;;;;;;9.68;3.25;;;;;;;;;;5041954;28;20134;-69
2022/09/04 02:23:00;;;;;;;10.40;3.45;;;;;;;;;;5043219;28;20464;-69
2022/09/04 02:25:40;;;;;;;6.78;2.95;;;;;;;;;;5041282;28;20036;-70
2022/09/04 02:28:39;;;;;;;9.07;2.97;;;;;;;;;;5040236;28;20053;-71
2022/09/04 02:31:31;;;;;;;11.60;3.03;;;;;;;;;;5041815;28;20069;-71
2022/09/04 02:34:30;;;;;;;12.95;3.42;;;;;;;;;;5041316;28;20045;-68
2022/09/04 02:37:21;;;;;;;11.40;3.38;;;;;;;;;;5041078;28;20506;-71
2022/09/04 02:40:22;;;;;;;11.00;3.42;;;;;;;;;;5040737;28;20053;-70
2022/09/04 02:43:18;;;;;;;10.68;3.15;;;;;;;;;;5042142;28;20182;-68
2022/09/04 02:46:04;;;;;;;12.35;3.17;;;;;;;;;;5041507;28;20064;-68
2022/09/04 02:48:56;;;;;;;8.98;3.03;;;;;;;;;;5038894;28;20052;-69
2022/09/04 02:51:34;;;;;;;8.30;2.83;;;;;;;;;;5042818;28;20059;-69
2022/09/04 02:54:31;;;;;;;7.50;2.75;;;;;;;;;;5041269;28;20041;-68
2022/09/04 02:56:58;;;;;;;11.13;3.38;;;;;;;;;;5043733;28;20059;-68
2022/09/04 02:59:57;;;;;;;10.32;2.80;;;;;;;;;;5044220;28;20128;-69
2022/09/04 03:02:32;;;;;;;12.50;3.17;;;;;;;;;;5011679;28;20516;-68
2022/09/04 03:05:14;;;;;;;9.07;3.15;;;;;;;;;;5044258;28;20426;-68
2022/09/04 03:07:47;;;;;;;15.02;3.00;;;;;;;;;;5044506;28;20259;-71
2022/09/04 03:10:27;;;;;;;11.00;3.03;;;;;;;;;;5045694;28;20071;-68
2022/09/04 03:13:17;;;;;;;11.65;2.92;;;;;;;;;;5046380;28;20444;-68
2022/09/04 03:15:49;;;;;;;9.88;3.25;;;;;;;;;;5043251;28;20691;-68
2022/09/04 03:18:47;;;;;;;10.80;2.90;;;;;;;;;;5042430;28;20044;-70
2022/09/04 03:21:20;;;;;;;9.98;2.70;;;;;;;;;;5054003;28;20049;-70
2022/09/04 03:24:31;;;;;;;12.30;3.08;;;;;;;;;;5042947;28;20413;-67
2022/09/04 03:27:03;;;;;;;14.85;3.47;;;;;;;;;;4981292;28;20579;-72
2022/09/04 03:29:43;;;;;;;8.63;2.67;;;;;;;;;;4967286;28;20594;-68
2022/09/04 03:32:25;;;;;;;12.73;3.30;;;;;;;;;;4984161;28;20105;-69
2022/09/04 03:35:05;;;;;;;7.95;2.72;;;;;;;;;;4983366;28;20137;-69
2022/09/04 03:37:58;;;;;;;10.77;3.13;;;;;;;;;;4981756;28;20066;-72
2022/09/04 03:40:32;;;;;;;11.27;3.17;;;;;;;;;;4982687;28;20058;-70
2022/09/04 03:43:16;;;;;;;;;;;;;;;;;;4966828;28;20046;-69
2022/09/04 03:45:45;;;;;;;10.35;3.20;;;;;;;;;;4984653;28;19936;-68
2022/09/04 03:48:45;;;;;;;9.40;3.03;;;;;;;;;;4982650;28;20650;-71
2022/09/04 03:51:37;;;;;;;10.90;3.30;;;;;;;;;;4976700;28;20233;-69
2022/09/04 03:55:00;;;;;;;8.98;2.88;;;;;;;;;;4976533;28;20054;-69
2022/09/04 03:57:44;;;;;;;11.02;3.30;;;;;;;;;;4968987;28;20424;-71
2022/09/04 04:00:17;;;;;;;7.90;2.70;;;;;;;;;;5001485;28;20058;-70
2022/09/04 04:02:49;;;;;;;5.63;2.72;;;;;;;;;;5001856;28;20058;-69
2022/09/04 04:05:28;;;;;;;11.82;2.92;;;;;;;;;;4999932;28;20050;-69
2022/09/04 04:08:01;;;;;;;9.57;2.72;;;;;;;;;;4982078;28;20606;-69
2022/09/04 04:10:47;;;;;;;11.63;3.05;;;;;;;;;;4998663;28;20491;-68
2022/09/04 04:13:39;;;;;;;10.32;3.08;;;;;;;;;;5000792;28;20076;-69
2022/09/04 04:16:13;;;;;;;8.40;2.92;;;;;;;;;;4999041;28;20046;-69
2022/09/04 04:19:09;;;;;;;11.15;2.60;;;;;;;;;;5000371;28;20062;-71
2022/09/04 04:21:54;;;;;;;8.73;3.15;;;;;;;;;;4986623;28;20643;-74
2022/09/04 04:24:47;;;;;;;7.88;2.92;;;;;;;;;;5001368;28;20109;-68
2022/09/04 04:27:51;;;;;;;8.27;2.83;;;;;;;;;;5002165;28;20065;-70
2022/09/04 04:30:18;;;;;;;;;;;;;;;;;;5000280;28;20077;-68
2022/09/04 04:33:02;;;;;;;6.05;2.65;;;;;;;;;;5045271;28;19935;-68
2022/09/04 04:35:43;;;;;;;;;;;;;;;;;;5044798;28;20049;-70
2022/09/04 04:38:29;;;;;;;7.00;2.78;;;;;;;;;;5042254;28;20283;-69
2022/09/04 04:41:23;;;;;;;10.50;3.13;;;;;;;;;;5041516;28;20099;-68
2022/09/04 04:44:04;;;;;;;9.27;2.90;;;;;;;;;;5044627;28;20048;-72
2022/09/04 04:47:06;;;;;;;8.60;2.70;;;;;;;;;;5045197;28;20160;-71
2022/09/04 04:49:37;;;;;;;6.25;2.67;;;;;;;;;;5040784;28;20582;-70
2022/09/04 04:52:26;;;;;;;7.03;2.53;;;;;;;;;;5042544;28;20102;-68
2022/09/04 04:55:20;;;;;;;7.70;2.50;;;;;;;;;;5043010;28;20048;-69
2022/09/04 04:58:18;;;;;;;6.53;2.65;;;;;;;;;;5043897;28;20063;-68
2022/09/04 05:01:08;;;;;;;8.32;3.05;;;;;;;;;;4971130;28;20061;-69
2022/09/04 05:03:57;;;;;;;7.32;2.65;;;;;;;;;;4981656;28;20121;-69
2022/09/04 05:06:41;;;;;;;7.00;3.03;;;;;;;;;;4984291;28;20520;-68
2022/09/04 05:09:20;;;;;;;9.55;3.00;;;;;;;;;;4977268;28;20047;-72
2022/09/04 05:12:10;;;;;;;8.27;2.92;;;;;;;;;;4980933;28;20142;-69
2022/09/04 05:14:50;;;;;;;11.50;2.97;;;;;;;;;;4974293;28;20082;-70
2022/09/04 05:17:46;;;;;;;8.63;2.50;;;;;;;;;;4980312;28;20153;-68
2022/09/04 05:20:24;;;;;;;12.25;3.10;;;;;;;;;;4977473;28;20050;-70
2022/09/04 05:23:00;;;;;;;5.05;2.42;;;;;;;;;;4981490;28;20062;-74
2022/09/04 05:25:29;;;;;;;7.57;2.50;;;;;;;;;;4964237;28;20548;-68
2022/09/04 05:28:19;;;;;;;6.85;2.88;;;;;;;;;;4979047;28;20054;-69
2022/09/04 05:30:52;;;;;;;9.18;2.90;;;;;;;;;;4979995;28;20137;-70
2022/09/04 05:33:52;;;;;;;8.57;3.08;;;;;;;;;;4981825;28;20901;-73
2022/09/04 05:36:18;;;;;;;8.32;2.20;;;;;;;;;;4979989;28;20054;-69
2022/09/04 05:39:25;;;;;;;8.35;2.80;;;;;;;;;;5037139;28;20091;-68
2022/09/04 05:42:03;;;;;;;8.65;2.78;;;;;;;;;;5041188;28;20069;-69
2022/09/04 05:44:54;;;;;;;8.20;2.70;;;;;;;;;;5040804;28;20454;-70
2022/09/04 05:47:57;;;;;;;9.90;2.70;;;;;;;;;;5045170;28;20041;-70
2022/09/04 05:50:41;;;;;;;8.93;3.10;;;;;;;;;;5044441;28;20053;-69
2022/09/04 05:53:19;;;;;;;7.22;2.42;;;;;;;;;;5041515;28;20513;-69
2022/09/04 05:56:04;;;;;;;6.78;2.67;;;;;;;;;;5039184;28;20068;-68
2022/09/04 05:58:38;;;;;;;;;;;;;;;;;;5041061;28;20105;-68
2022/09/04 06:01:22;;;;;;;6.43;2.50;;;;;;;;;;5041306;28;19944;-68
2022/09/04 06:04:13;;;;;;;7.95;2.53;;;;;;;;;;5042179;28;20143;-70
2022/09/04 06:07:04;;;;;;;10.05;2.60;;;;;;;;;;5040187;28;20053;-70
2022/09/04 06:09:45;;;;;;;8.20;2.42;;;;;;;;;;4976110;28;20129;-65
2022/09/04 06:12:27;;;;;;;6.95;2.35;;;;;;;;;;4999451;28;20231;-65
2022/09/04 06:15:12;;;;;;;8.88;3.17;;;;;;;;;;4998708;28;20064;-65
2022/09/04 06:18:16;;;;;;;5.72;2.38;;;;;;;;;;4998381;28;20046;-66
2022/09/04 06:20:56;;;;;;;11.25;4.25;;;;;;;;;;4991399;28;20141;-68
2022/09/04 06:23:31;;;;;;;8.65;3.17;;;;;;;;;;4995005;28;20080;-68
2022/09/04 06:26:41;;;;;;;5.50;2.33;;;;;;;;;;4994499;28;20458;-66
2022/09/04 06:29:41;;;;;;;5.22;2.10;;;;;;;;;;4977302;28;20140;-69
2022/09/04 06:32:44;;;;;;;6.68;2.85;;;;;;;;;;4997602;28;20728;-66
2022/09/04 06:35:10;;;;;;;6.57;2.53;;;;;;;;;;4993250;28;20046;-65
2022/09/04 06:37:42;;;;;;;6.10;2.40;;;;;;;;;;4996867;28;20050;-66
2022/09/04 06:40:23;;;;;;;6.32;3.00;;;;;;;;;;4991688;28;20042;-67
2022/09/04 06:43:10;;;;;;;6.88;3.00;;;;;;;;;;4994782;28;20058;-66
2022/09/04 06:45:52;;;;;;;11.05;3.08;;;;;;;;;;4998265;28;20397;-67
2022/09/04 06:48:56;;;;;;;8.35;2.78;;;;;;;;;;5037399;28;20119;-69
2022/09/04 06:51:51;;;;;;;4.05;2.22;;;;;;;;;;5038121;28;20064;-65
2022/09/04 06:54:42;;;;;;;5.57;2.40;;;;;;;;;;5040185;28;20075;-66
2022/09/04 06:57:37;;;;;;;10.43;2.63;;;;;;;;;;5040452;28;20047;-66
2022/09/04 07:00:12;;;;;;;7.45;2.65;;;;;;;;;;5036600;28;20082;-66
2022/09/04 07:02:57;;;;;;;6.40;2.67;;;;;;;;;;5039158;28;20041;-67
2022/09/04 07:05:28;;;;;;;6.75;2.70;;;;;;;;;;5042032;28;20056;-66
2022/09/04 07:08:12;;;;;;;7.60;2.80;;;;;;;;;;5037437;28;20049;-64
2022/09/04 07:10:49;;;;;;;10.57;2.72;;;;;;;;;;5038174;28;20115;-72
2022/09/04 07:13:34;;;;;;;6.85;2.45;;;;;;;;;;5037914;28;20044;-68
2022/09/04 07:16:06;;;;;;;4.35;2.42;;;;;;;;;;5038459;28;20059;-67
2022/09/04 07:18:54;;;;;;;9.93;2.75;;;;;;;;;;5037694;28;20402;-65
2022/09/04 07:21:47;;;;;;;7.82;2.63;;;;;;;;;;5037726;28;20403;-68
2022/09/04 07:24:28;;;;;;;7.65;2.83;;;;;;;;;;5037829;28;20056;-65
2022/09/04 07:27:14;;;;;;;7.07;3.00;;;;;;;;;;5038777;28;20055;-67
2022/09/04 07:29:59;;;;;;;6.18;2.65;;;;;;;;;;5038243;28;20057;-65
2022/09/04 07:32:37;;;;;;;7.05;2.80;;;;;;;;;;5040172;28;20140;-65
2022/09/04 07:35:20;;;;;;;8.18;2.50;;;;;;;;;;5035643;28;20041;-67
2022/09/04 07:37:49;;;;;;;8.52;2.83;;;;;;;;;;5037322;28;20474;-67
2022/09/04 07:40:20;;;;;;;7.97;2.55;;;;;;;;;;5038036;28;20112;-66
2022/09/04 07:43:22;;;;;;;5.97;2.40;;;;;;;;;;5042080;28;20056;-66
2022/09/04 07:46:02;;;;;;;5.75;2.47;;;;;;;;;;5041844;28;20056;-68
2022/09/04 07:48:35;;;;;;;8.30;2.17;;;;;;;;;;5039058;28;20049;-68
2022/09/04 07:51:14;;;;;;;4.35;2.00;;;;;;;;;;5040715;28;20072;-67
2022/09/04 07:54:17;;;;;;;4.40;2.10;;;;;;;;;;5041613;28;20041;-70
2022/09/04 07:56:53;;;;;;;9.75;2.55;;;;;;;;;;5039304;28;20064;-69
2022/09/04 07:59:37;;;;;;;5.35;2.25;;;;;;;;;;5042681;28;20044;-64
2022/09/04 08:02:09;;;;;;;6.80;2.00;;;;;;;;;;5038630;28;20048;-66
2022/09/04 08:04:55;;;;;;;9.25;2.45;;;;;;;;;;5039888;28;20494;-65
2022/09/04 08:07:37;;;;;;;9.32;2.28;;;;;;;;;;5040963;28;20084;-66
2022/09/04 08:10:31;;;;;;;8.52;2.78;;;;;;;;;;5034812;28;20103;-67
2022/09/04 08:13:08;;;;;;;7.65;2.35;;;;;;;;;;5042309;28;20062;-63
2022/09/04 08:15:42;;;;;;;6.85;2.30;;;;;;;;;;5040060;28;20056;-65
2022/09/04 08:18:18;;;;;;;5.90;2.42;;;;;;;;;;5038675;28;20780;-65
2022/09/04 08:21:08;;;;;;;9.48;2.58;;;;;;;;;;5038973;28;20616;-64
2022/09/04 08:24:01;;;;;;;7.65;2.60;;;;;;;;;;5038799;28;20057;-66
2022/09/04 08:26:44;;;;;;;10.77;2.70;;;;;;;;;;5035979;28;20045;-64
2022/09/04 08:29:31;;;;;;;8.52;2.72;;;;;;;;;;5039842;28;20150;-65
2022/09/04 08:32:28;;;;;;;7.75;2.60;;;;;;;;;;5040640;28;20525;-69
2022/09/04 08:35:08;;;;;;;7.25;2.40;;;;;;;;;;5044685;28;20064;-69
2022/09/04 08:37:48;;;;;;;7.13;2.30;;;;;;;;;;5043644;28;20449;-66
2022/09/04 08:40:33;;;;;;;6.47;2.45;;;;;;;;;;5043541;28;20167;-70
2022/09/04 08:43:25;;;;;;;;;;;;;;;;;;5043055;28;20044;-67
2022/09/04 08:45:51;;;;;;;9.98;2.60;;;;;;;;;;5019102;28;20504;-68
2022/09/04 08:48:17;;;;;;;10.55;2.60;;;;;;;;;;5041639;28;20056;-70
2022/09/04 08:50:50;;;;;;;12.52;2.80;;;;;;;;;;5042290;28;20059;-67
2022/09/04 08:53:40;;;;;;;8.82;2.33;;;;;;;;;;5040966;28;20566;-69
2022/09/04 08:56:58;;;;;;;8.32;2.72;;;;;;;;;;5042432;28;20057;-69
2022/09/04 09:00:05;;;;;;;10.35;2.53;;;;;;;;;;5002188;28;20081;-68
2022/09/04 09:02:52;;;;;;;5.65;2.42;;;;;;;;;;5000767;28;20103;-69
2022/09/04 09:05:56;;;;;;;9.32;2.40;;;;;;;;;;4999619;28;20100;-68
2022/09/04 09:09:08;;;;;;;10.73;3.30;;;;;;;;;;4999653;28;20061;-67
2022/09/04 09:11:44;;;;;;;10.85;2.80;;;;;;;;;;4977693;28;20050;-67
2022/09/04 09:14:42;;;;;;;9.45;2.78;;;;;;;;;;5003108;28;20612;-74
2022/09/04 09:17:32;;;;;;;8.15;2.67;;;;;;;;;;4905492;29;20561;-68
2022/09/04 09:20:08;;;;;;;9.18;3.22;;;;;;;;;;4900922;29;20056;-69
2022/09/04 09:22:39;;;;;;;10.18;2.53;;;;;;;;;;4904393;29;20639;-69
2022/09/04 09:25:13;;;;;;;11.13;2.83;;;;;;;;;;4904714;29;20234;-70
2022/09/04 09:28:07;;;;;;;7.53;2.35;;;;;;;;;;4903872;29;20350;-69
2022/09/04 09:30:51;;;;;;;12.77;2.95;;;;;;;;;;4906053;29;20354;-69
2022/09/04 09:33:41;;;;;;;7.18;2.80;;;;;;;;;;4903924;29;20556;-70
2022/09/04 09:36:14;;;;;;;10.68;2.70;;;;;;;;;;4969898;28;20125;-74
2022/09/04 09:39:09;;;;;;;9.30;2.83;;;;;;;;;;4966692;28;20085;-68
2022/09/04 09:41:53;;;;;;;7.70;2.17;;;;;;;;;;4956529;28;20055;-68
2022/09/04 09:44:32;;;;;;;;;;;;;;;;;;4964057;28;20058;-65
2022/09/04 09:47:16;;;;;;;8.80;2.50;;;;;;;;;;4963624;28;19969;-67
2022/09/04 09:50:05;;;;;;;10.73;3.05;;;;;;;;;;4966022;28;20660;-70
2022/09/04 09:52:43;;;;;;;11.82;3.35;;;;;;;;;;4967466;28;20490;-68
2022/09/04 09:55:24;;;;;;;10.35;3.90;;;;;;;;;;5040901;28;20514;-69
2022/09/04 09:58:01;;;;;;;9.55;2.78;;;;;;;;;;5040526;28;20059;-70
2022/09/04 10:00:49;;;;;;;15.35;3.13;;;;;;;;;;5037705;28;20116;-70
2022/09/04 10:03:30;;;;;;;8.40;2.95;;;;;;;;;;5038128;28;20053;-69
2022/09/04 10:06:26;;;;;;;12.52;3.17;;;;;;;;;;5038259;28;20339;-71
2022/09/04 10:09:07;;;;;;;15.35;3.65;;;;;;;;;;5037777;28;20053;-70
2022/09/04 10:11:52;;;;;;;8.15;3.03;;;;;;;;;;5039203;28;20108;-70
2022/09/04 10:14:42;;;;;;;5.95;2.08;;;;;;;;;;5039056;28;20053;-70
2022/09/04 10:17:27;;;;;;;8.55;2.20;;;;;;;;;;5036953;28;20049;-67
2022/09/04 10:20:23;;;;;;;8.48;2.58;;;;;;;;;;5039791;28;20438;-67
2022/09/04 10:23:04;;;;;;;8.48;2.22;;;;;;;;;;5039382;28;20132;-70
2022/09/04 10:25:47;;;;;;;8.85;2.33;;;;;;;;;;5037075;28;20493;-69
2022/09/04 10:28:55;;;;;;;11.35;2.65;;;;;;;;;;5037483;28;20510;-72
2022/09/04 10:31:39;;;;;;;11.88;1.90;;;;;;;;;;5035812;28;20545;-68
2022/09/04 10:34:23;;;;;;;8.45;2.30;;;;;;;;;;5033728;28;20080;-68
2022/09/04 10:37:07;;;;;;;10.27;2.33;;;;;;;;;;5035312;28;20084;-71
2022/09/04 10:43:12;;;;;;;9.43;2.10;;;;;;;;;;5040486;28;20150;-70
2022/09/04 10:45:45;;;;;;;6.32;1.92;;;;;;;;;;5038041;28;20056;-67
2022/09/04 10:48:48;;;;;;;11.32;2.78;;;;;;;;;;5037379;28;20444;-68
2022/09/04 10:51:36;;;;;;;8.40;2.22;;;;;;;;;;5053731;28;20060;-67
2022/09/04 10:54:24;;;;;;;12.15;2.70;;;;;;;;;;5036835;28;20102;-66
2022/09/04 10:57:28;;;;;;;8.50;1.95;;;;;;;;;;5039271;28;20082;-66
2022/09/04 10:59:56;;;;;;;4.88;1.95;;;;;;;;;;5039992;28;20411;-67
2022/09/04 11:02:50;;;;;;;10.95;2.40;;;;;;;;;;5038682;28;20053;-67
2022/09/04 11:05:26;;;;;;;5.60;1.92;;;;;;;;;;5040428;28;20176;-66
2022/09/04 11:07:55;;;;;;;10.43;2.10;;;;;;;;;;5038498;28;20545;-67
2022/09/04 11:10:48;;;;;;;7.47;2.10;;;;;;;;;;5040919;28;20510;-70
2022/09/04 11:13:42;;;;;;;7.88;2.17;;;;;;;;;;5040933;28;20098;-67
2022/09/04 11:16:36;;;;;;;6.78;2.15;;;;;;;;;;5041441;28;20120;-69
2022/09/04 11:19:24;;;;;;;9.60;2.25;;;;;;;;;;5042741;28;20120;-67
2022/09/04 11:22:33;;;;;;;9.50;2.35;;;;;;;;;;5045251;28;20840;-67
2022/09/04 11:25:37;;;;;;;12.90;2.90;;;;;;;;;;5045594;28;20405;-67
2022/09/04 11:28:43;;;;;;;11.27;2.53;;;;;;;;;;5043378;28;20061;-67
2022/09/04 11:31:19;;;;;;;11.30;3.00;;;;;;;;;;5041348;28;20048;-66
2022/09/04 11:34:32;;;;;;;16.40;3.83;;;;;;;;;;5044259;28;20084;-66
2022/09/04 11:37:14;;;;;;;13.77;3.00;;;;;;;;;;5042514;28;20482;-67
2022/09/04 11:39:49;;;;;;;12.25;2.30;;;;;;;;;;5042419;28;20053;-67
2022/09/04 11:42:30;;;;;;;11.00;2.20;;;;;;;;;;5046644;28;20765;-67
2022/09/04 11:45:15;;;;;;;12.40;2.72;;;;;;;;;;5044314;28;20053;-68
2022/09/04 11:48:25;;;;;;;10.65;2.42;;;;;;;;;;5041336;28;20053;-66
2022/09/04 11:51:38;;;;;;;9.32;2.30;;;;;;;;;;5042135;28;20064;-68
2022/09/04 11:54:07;;;;;;;10.38;2.83;;;;;;;;;;5041185;28;20051;-65
2022/09/04 11:56:46;;;;;;;10.38;2.40;;;;;;;;;;5042601;28;20055;-67
2022/09/04 11:59:40;;;;;;;9.52;2.42;;;;;;;;;;5039900;28;20056;-69
2022/09/04 12:02:15;;;;;;;10.20;2.60;;;;;;;;;;5043469;28;20406;-65
2022/09/04 12:05:07;;;;;;;10.93;2.53;;;;;;;;;;5044656;28;20503;-67
2022/09/04 12:07:42;;;;;;;8.13;2.55;;;;;;;;;;5043382;28;20041;-67
2022/09/04 12:10:30;;;;;;;11.65;2.83;;;;;;;;;;5039849;28;20055;-67
2022/09/04 12:13:06;;;;;;;10.77;3.20;;;;;;;;;;5043835;28;20057;-63
2022/09/04 12:15:53;;;;;;;9.18;2.70;;;;;;;;;;5045175;28;20049;-70
2022/09/04 12:19:00;;;;;;;6.72;2.15;;;;;;;;;;5042350;28;20048;-65
2022/09/04 12:21:58;;;;;;;11.55;2.45;;;;;;;;;;5000001;28;20098;-66
2022/09/04 12:24:52;;;;;;;8.55;2.10;;;;;;;;;;5001591;28;20045;-68
2022/09/04 12:27:27;;;;;;;7.72;2.35;;;;;;;;;;5000511;28;20662;-64
2022/09/04 12:30:08;;;;;;;13.15;2.72;;;;;;;;;;4999549;28;20058;-64
2022/09/04 12:32:52;;;;;;;6.15;2.33;;;;;;;;;;4998479;28;20089;-66
2022/09/04 12:35:25;;;;;;;11.15;2.65;;;;;;;;;;5002113;28;20312;-65
2022/09/04 12:38:33;;;;;;;13.32;2.50;;;;;;;;;;5000229;28;20054;-66
2022/09/04 12:41:27;;;;;;;11.45;2.60;;;;;;;;;;4987200;28;20455;-66
2022/09/04 12:44:04;;;;;;;8.60;2.67;;;;;;;;;;5002554;28;20480;-67
2022/09/04 12:46:49;;;;;;;9.57;2.35;;;;;;;;;;5001571;28;20682;-65
2022/09/04 12:49:43;;;;;;;10.40;2.60;;;;;;;;;;4984057;28;20061;-66
2022/09/04 12:52:18;;;;;;;12.15;2.33;;;;;;;;;;4995878;28;20074;-65
2022/09/04 12:55:00;;;;;;;9.27;2.45;;;;;;;;;;5000930;28;20069;-64
2022/09/04 12:57:35;;;;;;;8.60;2.63;;;;;;;;;;5039726;28;20052;-64
2022/09/04 13:00:27;;;;;;;8.38;2.63;;;;;;;;;;5040214;28;20045;-65
2022/09/04 13:03:11;;;;;;;10.88;2.10;;;;;;;;;;5039235;28;20064;-68
2022/09/04 13:06:02;;;;;;;6.97;2.00;;;;;;;;;;5039071;28;20052;-65
2022/09/04 13:08:44;;;;;;;19.27;2.78;;;;;;;;;;5037060;28;20049;-64
2022/09/04 13:11:41;;;;;;;10.93;2.20;;;;;;;;;;5039880;28;20103;-65
2022/09/04 13:14:34;;;;;;;7.97;2.33;;;;;;;;;;5043448;28;20509;-65
2022/09/04 13:17:38;;;;;;;10.27;2.72;;;;;;;;;;5039978;28;20503;-62
2022/09/04 13:20:08;;;;;;;;;;;;;;;;;;5040044;28;20521;-61
2022/09/04 13:23:04;;;;;;;9.43;2.42;;;;;;;;;;5040237;28;19929;-64
2022/09/04 13:26:00;;;;;;;9.27;2.40;;;;;;;;;;5039154;28;20044;-63
2022/09/04 13:28:38;;;;;;;10.50;2.70;;;;;;;;;;5048085;28;20041;-70
2022/09/04 13:31:32;;;;;;;10.40;2.85;;;;;;;;;;5044760;28;20037;-66
2022/09/04 13:34:16;;;;;;;11.82;2.67;;;;;;;;;;5046556;28;20109;-63
2022/09/04 13:36:54;;;;;;;;;;;;;;;;;;5045136;28;20083;-64
2022/09/04 13:39:33;;;;;;;11.90;2.90;;;;;;;;;;5042348;28;19946;-65
2022/09/04 13:42:10;;;;;;;12.32;2.60;;;;;;;;;;5042917;28;20045;-65
2022/09/04 13:44:55;;;;;;;10.25;2.35;;;;;;;;;;5041991;28;20566;-68
2022/09/04 13:47:23;;;;;;;13.18;3.33;;;;;;;;;;5039746;28;20053;-73
2022/09/04 13:50:08;;;;;;;21.63;4.90;;;;;;;;;;5039511;28;20057;-72
2022/09/04 13:52:37;;;;;;;16.23;3.88;;;;;;;;;;5022980;28;20080;-72
2022/09/04 13:55:12;;;;;;;13.15;3.05;;;;;;;;;;5038052;28;20136;-71
2022/09/04 13:57:46;;;;;;;10.57;2.42;;;;;;;;;;5042932;28;20056;-70
2022/09/04 14:00:15;;;;;;;10.25;3.20;;;;;;;;;;5045162;28;20159;-71
2022/09/04 14:02:43;;;;;;;10.60;2.90;;;;;;;;;;5043508;28;20064;-72
2022/09/04 14:05:15;;;;;;;10.70;3.20;;;;;;;;;;5042008;28;20619;-71
2022/09/04 14:07:46;;;;;;;10.88;2.55;;;;;;;;;;5038183;28;20498;-66
2022/09/04 14:10:21;;;;;;;7.45;2.60;;;;;;;;;;5040468;28;20041;-68
2022/09/04 14:13:12;;;;;;;9.80;2.40;;;;;;;;;;5041889;28;20083;-65
2022/09/04 14:15:40;;;;;;;12.88;2.40;;;;;;;;;;5040168;28;20080;-65
2022/09/04 14:18:27;;;;;;;7.03;2.40;;;;;;;;;;5039648;28;20086;-63
2022/09/04 14:20:58;;;;;;;10.05;2.75;;;;;;;;;;5041070;28;20519;-66
2022/09/04 14:23:27;;;;;;;15.57;2.75;;;;;;;;;;5041093;28;20788;-67
2022/09/04 14:25:57;;;;;;;10.35;2.70;;;;;;;;;;5034510;28;20102;-65
2022/09/04 14:28:48;;;;;;;10.68;2.55;;;;;;;;;;5041887;28;20056;-66
2022/09/04 14:31:29;;;;;;;11.27;2.47;;;;;;;;;;5041697;28;20057;-66
2022/09/04 14:33:58;;;;;;;10.82;2.50;;;;;;;;;;5044144;28;20072;-67
2022/09/04 14:36:27;;;;;;;11.57;2.45;;;;;;;;;;5045271;28;20745;-64
2022/09/04 14:39:14;;;;;;;11.95;2.80;;;;;;;;;;5042709;28;20087;-65
2022/09/04 14:41:58;;;;;;;10.60;2.70;;;;;;;;;;5041181;28;20403;-65
2022/09/04 14:44:44;;;;;;;10.27;2.42;;;;;;;;;;5042046;28;20728;-70
2022/09/04 14:47:46;;;;;;;9.75;2.70;;;;;;;;;;5041565;28;20091;-67
2022/09/04 14:50:15;;;;;;;10.55;2.47;;;;;;;;;;5040511;28;20056;-65
2022/09/04 14:52:47;;;;;;;11.05;2.63;;;;;;;;;;5046525;28;20044;-68
2022/09/04 14:55:15;;;;;;;10.98;2.50;;;;;;;;;;5046513;28;20091;-68
2022/09/04 14:57:49;;;;;;;9.80;2.97;;;;;;;;;;5044792;28;20053;-67
2022/09/04 15:00:19;;;;;;;8.20;2.10;;;;;;;;;;5041044;28;20047;-68
2022/09/04 15:03:07;;;;;;;12.52;2.95;;;;;;;;;;5044314;28;20057;-68
2022/09/04 15:05:46;;;;;;;14.73;2.90;;;;;;;;;;5042378;28;20143;-68
2022/09/04 15:08:32;;;;;;;14.05;2.67;;;;;;;;;;5041228;28;20071;-69
2022/09/04 15:11:04;;;;;;;11.38;2.80;;;;;;;;;;5038771;28;20433;-68
2022/09/04 15:13:44;;;;;;;10.18;2.72;;;;;;;;;;5042840;28;20421;-65
2022/09/04 15:16:20;;;;;;;10.30;2.45;;;;;;;;;;5039013;28;20172;-65
2022/09/04 15:18:56;;;;;;;11.20;3.17;;;;;;;;;;5033483;28;20049;-69
2022/09/04 15:21:53;;;;;;;12.50;3.30;;;;;;;;;;5041818;28;20065;-70
2022/09/04 15:24:27;;;;;;;8.98;2.38;;;;;;;;;;5027269;28;20209;-68
2022/09/04 15:26:56;;;;;;;;;;;;;;;;;;5039054;28;20056;-67
2022/09/04 15:29:44;;;;;;;11.32;2.33;;;;;;;;;;5041896;28;19929;-72
2022/09/04 15:32:17;;;;;;;9.85;2.40;;;;;;;;;;5036980;28;20579;-67
2022/09/04 15:34:43;;;;;;;11.55;2.10;;;;;;;;;;5040177;28;20052;-65
2022/09/04 15:37:24;;;;;;;11.63;2.30;;;;;;;;;;5040819;28;20041;-67
2022/09/04 15:39:59;;;;;;;7.63;2.42;;;;;;;;;;5040073;28;20095;-64
2022/09/04 15:42:45;;;;;;;10.50;2.20;;;;;;;;;;5042400;28;20072;-65
2022/09/04 15:45:22;;;;;;;9.60;2.40;;;;;;;;;;5042135;28;20076;-63
2022/09/04 15:48:25;;;;;;;10.38;2.38;;;;;;;;;;5038302;28;20052;-67
2022/09/04 15:51:01;;;;;;;12.30;2.90;;;;;;;;;;5042538;28;20497;-64
2022/09/04 15:53:35;;;;;;;10.27;2.53;;;;;;;;;;5043661;28;20490;-64
2022/09/04 15:56:09;;;;;;;7.55;2.83;;;;;;;;;;5039917;28;20041;-65
2022/09/04 15:58:51;;;;;;;12.80;2.08;;;;;;;;;;5040038;28;20680;-67
2022/09/04 16:01:24;;;;;;;14.90;2.80;;;;;;;;;;5038788;28;20049;-69
2022/09/04 16:03:53;;;;;;;14.77;2.47;;;;;;;;;;5043210;28;20158;-67
2022/09/04 16:06:31;;;;;;;9.90;2.28;;;;;;;;;;5041995;28;20041;-64
2022/09/04 16:09:17;;;;;;;8.00;2.35;;;;;;;;;;5038263;28;20064;-72
2022/09/04 16:11:58;;;;;;;10.57;2.55;;;;;;;;;;5041672;28;20065;-67
2022/09/04 16:14:36;;;;;;;11.45;2.65;;;;;;;;;;5041420;28;21075;-65
2022/09/04 16:17:10;;;;;;;9.10;2.25;;;;;;;;;;5036729;28;20576;-66
2022/09/04 16:19:42;;;;;;;14.15;2.67;;;;;;;;;;5035244;28;20048;-67
2022/09/04 16:22:27;;;;;;;13.95;9.05;;;;;;;;;;5037761;28;20157;-67